createdAt,value
2022-08-18T00:01:11.863Z,99.90
2022-08-18T00:03:56.899Z,99.90
2022-08-18T00:06:30.202Z,99.90
2022-08-18T00:09:00.969Z,99.90
2022-08-18T00:11:41.026Z,99.90
2022-08-18T00:14:14.562Z,99.90
2022-08-18T00:16:50.791Z,99.90
2022-08-18T00:19:18.917Z,99.90
2022-08-18T00:21:48.310Z,99.90
2022-08-18T00:24:16.565Z,99.90
2022-08-18T00:26:44.792Z,99.90
2022-08-18T00:29:16.743Z,99.90
2022-08-18T00:31:44.818Z,99.90
2022-08-18T00:34:12.853Z,99.90
2022-08-18T00:36:41.161Z,99.90
2022-08-18T00:39:10.528Z,99.90
2022-08-18T00:41:38.602Z,99.90
2022-08-18T00:44:06.627Z,99.90
2022-08-18T00:46:37.117Z,99.90
2022-08-18T00:49:05.909Z,99.90
2022-08-18T00:51:39.244Z,99.90
2022-08-18T00:54:12.885Z,99.90
2022-08-18T00:56:45.214Z,99.90
2022-08-18T00:59:21.905Z,99.90
2022-08-18T01:01:51.995Z,99.90
2022-08-18T01:04:25.351Z,99.90
2022-08-18T01:06:57.898Z,99.90
2022-08-18T01:09:27.773Z,99.90
2022-08-18T01:11:56.464Z,99.90
2022-08-18T01:14:25.048Z,99.90
2022-08-18T01:17:10.451Z,99.90
2022-08-18T01:19:57.446Z,99.90
2022-08-18T01:22:30.504Z,99.90
2022-08-18T01:25:19.515Z,99.90
2022-08-18T01:27:47.876Z,99.90
2022-08-18T01:30:19.138Z,99.90
2022-08-18T01:32:47.212Z,99.90
2022-08-18T01:35:18.246Z,99.90
2022-08-18T01:37:46.282Z,99.90
2022-08-18T01:41:23.806Z,99.90
2022-08-18T01:43:06.728Z,99.90
2022-08-18T01:45:35.362Z,99.90
2022-08-18T01:48:04.998Z,99.90
2022-08-18T01:50:35.136Z,99.90
2022-08-18T01:53:05.541Z,99.90
2022-08-18T01:55:35.704Z,99.90
2022-08-18T01:58:04.806Z,99.90
2022-08-18T02:00:33.322Z,99.90
2022-08-18T02:03:03.088Z,99.90
2022-08-18T02:05:34.956Z,99.90
2022-08-18T02:08:03.660Z,99.90
2022-08-18T02:10:32.024Z,99.90
2022-08-18T02:13:01.705Z,99.90
2022-08-18T02:15:29.699Z,99.90
2022-08-18T02:17:57.765Z,99.90
2022-08-18T02:20:26.485Z,99.90
2022-08-18T02:22:54.562Z,99.90
2022-08-18T02:25:23.127Z,99.90
2022-08-18T02:27:51.527Z,99.90
2022-08-18T02:30:21.309Z,99.90
2022-08-18T02:32:49.595Z,99.90
2022-08-18T02:35:17.687Z,99.90
2022-08-18T02:37:47.951Z,99.90
2022-08-18T02:40:17.194Z,99.90
2022-08-18T02:42:46.610Z,99.90
2022-08-18T02:45:15.484Z,99.90
2022-08-18T02:47:46.044Z,99.90
2022-08-18T02:50:16.800Z,99.90
2022-08-18T02:52:44.871Z,99.90
2022-08-18T02:55:13.453Z,99.90
2022-08-18T02:57:44.225Z,99.90
2022-08-18T03:00:15.567Z,99.90
2022-08-18T03:02:49.101Z,99.90
2022-08-18T03:05:17.510Z,99.90
2022-08-18T03:07:46.337Z,99.90
2022-08-18T03:10:33.095Z,99.90
2022-08-18T03:13:02.491Z,99.90
2022-08-18T03:15:30.727Z,99.90
2022-08-18T03:18:01.172Z,99.90
2022-08-18T03:20:30.432Z,99.90
2022-08-18T03:22:59.691Z,99.90
2022-08-18T03:25:33.878Z,99.90
2022-08-18T03:28:03.960Z,99.90
2022-08-18T03:30:32.102Z,99.90
2022-08-18T03:33:01.613Z,99.90
2022-08-18T03:35:30.311Z,99.90
2022-08-18T03:38:00.225Z,99.90
2022-08-18T03:40:28.324Z,99.90
2022-08-18T03:42:56.696Z,99.90
2022-08-18T03:45:27.474Z,99.90
2022-08-18T03:47:55.847Z,99.90
2022-08-18T03:50:25.676Z,99.90
2022-08-18T03:52:54.287Z,99.90
2022-08-18T03:55:24.634Z,99.90
2022-08-18T03:57:53.191Z,99.90
2022-08-18T04:00:21.926Z,99.90
2022-08-18T04:02:50.030Z,99.90
2022-08-18T04:05:18.207Z,99.90
2022-08-18T04:07:47.667Z,99.90
2022-08-18T04:10:19.172Z,99.90
2022-08-18T04:12:47.997Z,99.90
2022-08-18T04:15:17.528Z,99.90
2022-08-18T04:17:56.203Z,99.90
2022-08-18T04:20:32.950Z,99.90
2022-08-18T04:23:02.779Z,99.90
2022-08-18T04:25:33.115Z,99.90
2022-08-18T04:28:03.549Z,99.90
2022-08-18T04:30:32.315Z,99.90
2022-08-18T04:33:02.517Z,99.90
2022-08-18T04:35:32.065Z,99.90
2022-08-18T04:38:00.260Z,99.90
2022-08-18T04:40:30.218Z,99.90
2022-08-18T04:42:58.418Z,99.90
2022-08-18T04:45:26.755Z,99.90
2022-08-18T04:47:54.889Z,99.90
2022-08-18T04:50:24.565Z,99.90
2022-08-18T04:53:09.939Z,99.90
2022-08-18T04:55:39.321Z,99.90
2022-08-18T04:58:07.853Z,99.90
2022-08-18T05:00:35.917Z,99.90
2022-08-18T05:03:03.945Z,99.90
2022-08-18T05:05:32.160Z,99.90
2022-08-18T05:08:00.218Z,99.90
2022-08-18T05:10:28.368Z,99.90
2022-08-18T05:12:57.809Z,99.90
2022-08-18T05:15:26.398Z,99.90
2022-08-18T05:17:54.542Z,99.90
2022-08-18T05:20:23.229Z,99.90
2022-08-18T05:22:51.426Z,99.90
2022-08-18T05:25:19.619Z,99.90
2022-08-18T05:27:47.776Z,99.90
2022-08-18T05:30:17.271Z,99.90
2022-08-18T05:32:49.906Z,99.90
2022-08-18T05:35:23.658Z,99.90
2022-08-18T05:38:04.691Z,99.90
2022-08-18T05:40:32.878Z,99.90
2022-08-18T05:43:02.450Z,99.90
2022-08-18T05:45:34.052Z,99.90
2022-08-18T05:48:02.132Z,99.90
2022-08-18T05:50:35.418Z,99.90
2022-08-18T05:53:13.336Z,99.90
2022-08-18T05:56:09.317Z,99.90
2022-08-18T05:58:43.120Z,99.90
2022-08-18T06:01:17.031Z,99.90
2022-08-18T06:03:50.432Z,99.90
2022-08-18T06:06:21.346Z,99.90
2022-08-18T06:08:56.907Z,99.90
2022-08-18T06:11:25.807Z,99.90
2022-08-18T06:13:59.118Z,99.90
2022-08-18T06:16:42.300Z,99.90
2022-08-18T06:19:26.458Z,99.90
2022-08-18T06:22:02.070Z,99.90
2022-08-18T06:24:36.029Z,99.90
2022-08-18T06:27:15.362Z,99.90
2022-08-18T06:29:58.947Z,99.90
2022-08-18T06:32:43.615Z,99.90
2022-08-18T06:35:19.316Z,99.90
2022-08-18T06:38:12.085Z,99.90
2022-08-18T06:40:40.197Z,99.90
2022-08-18T06:43:15.904Z,99.90
2022-08-18T06:45:50.480Z,99.90
2022-08-18T06:48:26.128Z,99.90
2022-08-18T06:51:00.841Z,99.90
2022-08-18T06:53:55.050Z,99.90
2022-08-18T06:56:27.359Z,99.90
2022-08-18T06:58:56.078Z,99.90
2022-08-18T07:01:25.971Z,99.90
2022-08-18T07:03:58.275Z,99.90
2022-08-18T07:06:31.142Z,99.90
2022-08-18T07:09:21.719Z,99.90
2022-08-18T07:12:07.070Z,99.90
2022-08-18T07:14:45.318Z,99.90
2022-08-18T07:17:15.463Z,99.90
2022-08-18T07:19:45.067Z,99.90
2022-08-18T07:22:17.000Z,99.90
2022-08-18T07:24:47.263Z,99.90
2022-08-18T07:27:18.056Z,99.90
2022-08-18T07:30:01.885Z,99.90
2022-08-18T07:32:36.979Z,99.90
2022-08-18T07:35:09.350Z,99.90
2022-08-18T07:37:44.086Z,99.90
2022-08-18T07:40:21.130Z,99.90
2022-08-18T07:43:01.117Z,99.90
2022-08-18T07:45:37.133Z,99.90
2022-08-18T07:48:37.562Z,99.90
2022-08-18T07:51:13.641Z,99.90
2022-08-18T07:53:56.737Z,99.90
2022-08-18T07:56:37.761Z,99.90
2022-08-18T07:59:16.255Z,99.90
2022-08-18T08:01:50.715Z,99.90
2022-08-18T08:04:31.663Z,99.90
2022-08-18T08:07:23.935Z,99.90
2022-08-18T08:10:03.225Z,99.90
2022-08-18T08:12:40.219Z,99.90
2022-08-18T08:15:18.765Z,99.90
2022-08-18T08:18:04.519Z,99.90
2022-08-18T08:20:40.307Z,99.90
2022-08-18T08:23:19.425Z,99.90
2022-08-18T08:25:57.638Z,99.90
2022-08-18T08:28:39.407Z,99.90
2022-08-18T08:34:08.449Z,99.90
2022-08-18T08:36:40.291Z,99.90
2022-08-18T08:39:15.425Z,99.90
2022-08-18T08:41:49.987Z,99.90
2022-08-18T08:44:23.279Z,99.90
2022-08-18T08:46:57.770Z,99.90
2022-08-18T08:49:46.208Z,99.90
2022-08-18T08:52:30.748Z,99.90
2022-08-18T08:55:06.561Z,99.90
2022-08-18T08:57:38.612Z,99.90
2022-08-18T09:00:11.071Z,99.90
2022-08-18T09:03:13.709Z,99.90
2022-08-18T09:05:53.431Z,99.90
2022-08-18T09:08:49.179Z,99.90
2022-08-18T09:11:45.931Z,97.90
2022-08-18T09:14:50.670Z,97.30
2022-08-18T09:17:44.165Z,97.30
2022-08-18T09:20:49.181Z,97.90
2022-08-18T09:23:22.071Z,96.50
2022-08-18T09:25:53.268Z,97.20
2022-08-18T09:28:40.970Z,95.30
2022-08-18T09:31:20.325Z,96.10
2022-08-18T09:34:10.897Z,94.30
2022-08-18T09:36:56.585Z,94.60
2022-08-18T09:39:54.919Z,95.10
2022-08-18T09:42:48.356Z,95.20
2022-08-18T09:45:58.764Z,96.00
2022-08-18T09:48:32.808Z,95.00
2022-08-18T09:51:24.628Z,95.40
2022-08-18T09:54:21.463Z,96.80
2022-08-18T09:57:24.385Z,95.50
2022-08-18T10:00:28.315Z,95.60
2022-08-18T10:03:25.874Z,95.30
2022-08-18T10:06:12.370Z,94.80
2022-08-18T10:09:18.122Z,94.40
2022-08-18T10:12:09.885Z,95.20
2022-08-18T10:15:09.394Z,94.20
2022-08-18T10:18:00.878Z,94.70
2022-08-18T10:20:42.612Z,95.20
2022-08-18T10:23:11.421Z,94.70
2022-08-18T10:25:42.595Z,94.40
2022-08-18T10:28:13.068Z,93.30
2022-08-18T10:34:16.426Z,93.20
2022-08-18T10:36:53.459Z,92.70
2022-08-18T10:39:24.736Z,92.80
2022-08-18T10:41:59.841Z,91.50
2022-08-18T10:44:31.322Z,93.10
2022-08-18T10:47:01.404Z,93.70
2022-08-18T10:49:33.222Z,92.90
2022-08-18T10:55:48.827Z,92.60
2022-08-18T10:58:40.972Z,92.80
2022-08-18T11:01:27.153Z,92.10
2022-08-18T11:04:27.493Z,91.50
2022-08-18T11:07:12.063Z,92.10
2022-08-18T11:09:56.880Z,92.10
2022-08-18T11:12:58.010Z,93.10
2022-08-18T11:15:38.814Z,91.20
2022-08-18T11:18:30.974Z,89.60
2022-08-18T11:21:23.683Z,91.60
2022-08-18T11:24:10.014Z,91.90
2022-08-18T11:26:42.389Z,93.10
2022-08-18T11:29:20.747Z,94.10
2022-08-18T11:31:52.608Z,92.50
2022-08-18T11:34:33.221Z,91.20
2022-08-18T11:37:04.796Z,92.30
2022-08-18T11:39:49.240Z,93.40
2022-08-18T11:42:21.904Z,91.60
2022-08-18T11:44:55.938Z,92.40
2022-08-18T11:47:27.997Z,92.90
2022-08-18T11:50:08.384Z,93.20
2022-08-18T11:55:38.721Z,92.90
2022-08-18T11:58:12.910Z,91.90
2022-08-18T12:01:01.669Z,91.90
2022-08-18T12:03:39.273Z,93.90
2022-08-18T12:06:23.521Z,94.70
2022-08-18T12:08:59.382Z,94.80
2022-08-18T12:11:31.040Z,96.10
2022-08-18T12:16:54.054Z,98.20
2022-08-18T12:19:24.466Z,96.70
2022-08-18T12:21:54.851Z,97.60
2022-08-18T12:24:29.390Z,98.70
2022-08-18T12:27:12.210Z,98.20
2022-08-18T12:29:52.273Z,98.90
2022-08-18T12:32:46.580Z,98.00
2022-08-18T12:35:12.367Z,99.50
2022-08-18T12:40:33.000Z,98.40
2022-08-18T12:43:01.639Z,97.40
2022-08-18T12:45:32.436Z,97.90
2022-08-18T12:48:02.569Z,98.10
2022-08-18T12:53:29.022Z,99.90
2022-08-18T12:55:59.239Z,99.90
2022-08-18T12:58:29.262Z,99.90
2022-08-18T13:00:58.814Z,99.90
2022-08-18T13:03:27.353Z,99.90
2022-08-18T13:05:57.476Z,99.90
2022-08-18T13:08:30.710Z,99.90
2022-08-18T13:11:14.462Z,99.90
2022-08-18T13:14:43.470Z,99.90
2022-08-18T13:17:14.900Z,99.90
2022-08-18T13:22:54.986Z,99.90
2022-08-18T13:25:32.101Z,99.90
2022-08-18T13:28:02.066Z,99.90
2022-08-18T13:30:32.411Z,99.90
2022-08-18T13:33:34.039Z,99.90
2022-08-18T13:35:54.589Z,99.90
2022-08-18T13:38:27.145Z,99.90
2022-08-18T13:40:58.913Z,99.90
2022-08-18T13:43:32.059Z,99.90
2022-08-18T13:46:01.315Z,99.90
2022-08-18T13:48:31.456Z,99.90
2022-08-18T13:51:01.737Z,99.90
2022-08-18T13:53:32.052Z,99.90
2022-08-18T13:56:00.325Z,99.90
2022-08-18T13:58:29.849Z,99.90
2022-08-18T14:01:22.944Z,99.90
2022-08-18T14:03:50.130Z,99.90
2022-08-18T14:06:22.587Z,99.90
2022-08-18T14:08:52.335Z,99.90
2022-08-18T14:11:21.651Z,99.90
2022-08-18T14:13:49.890Z,99.90
2022-08-18T14:16:19.515Z,99.90
2022-08-18T14:19:10.424Z,99.90
2022-08-18T14:22:00.801Z,99.90
2022-08-18T14:24:49.015Z,99.90
2022-08-18T14:27:17.592Z,99.50
2022-08-18T14:29:48.646Z,98.00
2022-08-18T14:32:28.681Z,98.40
2022-08-18T14:35:34.517Z,99.20
2022-08-18T14:37:48.971Z,99.30
2022-08-18T14:40:20.213Z,99.40
2022-08-18T14:42:53.969Z,99.90
2022-08-18T14:45:28.096Z,99.60
2022-08-18T14:48:06.667Z,98.50
2022-08-18T14:50:37.471Z,98.40
2022-08-18T14:53:06.382Z,98.30
2022-08-18T14:55:34.665Z,97.90
2022-08-18T14:58:07.227Z,98.40
2022-08-18T15:00:49.911Z,98.00
2022-08-18T15:03:28.368Z,98.00
2022-08-18T15:06:04.468Z,98.10
2022-08-18T15:08:34.420Z,98.00
2022-08-18T15:11:06.198Z,98.20
2022-08-18T15:13:41.647Z,98.90
2022-08-18T15:16:13.689Z,98.40
2022-08-18T15:18:42.273Z,98.20
2022-08-18T15:21:35.418Z,98.50
2022-08-18T15:24:25.156Z,98.40
2022-08-18T15:26:58.228Z,98.70
2022-08-18T15:29:34.819Z,98.70
2022-08-18T15:32:10.109Z,98.90
2022-08-18T15:34:46.959Z,99.80
2022-08-18T15:37:24.067Z,99.90
2022-08-18T15:40:02.634Z,99.90
2022-08-18T15:42:31.075Z,99.90
2022-08-18T15:45:11.926Z,99.90
2022-08-18T15:47:42.491Z,99.90
2022-08-18T15:50:21.840Z,99.90
2022-08-18T15:52:58.115Z,99.90
2022-08-18T15:55:29.565Z,99.90
2022-08-18T15:58:04.800Z,99.90
2022-08-18T16:00:42.249Z,99.90
2022-08-18T16:03:14.567Z,99.90
2022-08-18T16:05:48.324Z,99.90
2022-08-18T16:08:20.685Z,99.90
2022-08-18T16:10:49.487Z,99.90
2022-08-18T16:13:19.227Z,99.90
2022-08-18T16:15:48.356Z,99.90
2022-08-18T16:18:18.274Z,99.90
2022-08-18T16:20:46.826Z,99.90
2022-08-18T16:23:15.572Z,99.90
2022-08-18T16:25:45.795Z,99.90
2022-08-18T16:28:13.992Z,99.90
2022-08-18T16:30:42.363Z,99.90
2022-08-18T16:33:10.470Z,99.90
2022-08-18T16:35:38.634Z,99.90
2022-08-18T16:38:08.738Z,99.90
2022-08-18T16:40:38.056Z,99.90
2022-08-18T16:43:07.904Z,99.90
2022-08-18T16:45:38.301Z,99.90
2022-08-18T16:48:08.948Z,99.90
2022-08-18T16:50:38.367Z,99.90
2022-08-18T16:53:07.098Z,99.90
2022-08-18T16:55:35.296Z,99.90
2022-08-18T16:58:21.042Z,99.90
2022-08-18T17:01:08.008Z,99.90
2022-08-18T17:03:53.576Z,99.90
2022-08-18T17:06:22.039Z,99.90
2022-08-18T17:08:50.471Z,99.90
2022-08-18T17:11:21.216Z,99.90
2022-08-18T17:13:50.976Z,99.90
2022-08-18T17:16:22.197Z,99.90
2022-08-18T17:18:50.381Z,99.90
2022-08-18T17:21:27.488Z,99.90
2022-08-18T17:23:56.370Z,99.90
2022-08-18T17:26:38.377Z,99.90
2022-08-18T17:29:17.012Z,99.90
2022-08-18T17:31:53.210Z,99.90
2022-08-18T17:34:24.217Z,99.90
2022-08-18T17:36:55.189Z,99.90
2022-08-18T17:39:29.285Z,99.90
2022-08-18T17:42:14.776Z,99.90
2022-08-18T17:44:52.088Z,99.90
2022-08-18T17:47:27.031Z,99.90
2022-08-18T17:50:28.390Z,99.90
2022-08-18T17:53:05.199Z,99.90
2022-08-18T17:55:39.639Z,99.90
2022-08-18T17:58:14.486Z,99.90
2022-08-18T18:00:42.670Z,99.90
2022-08-18T18:03:13.423Z,99.90
2022-08-18T18:05:44.109Z,99.90
2022-08-18T18:08:12.246Z,99.90
2022-08-18T18:11:02.364Z,99.90
2022-08-18T18:13:32.718Z,99.90
2022-08-18T18:16:03.305Z,99.90
2022-08-18T18:18:41.847Z,99.90
2022-08-18T18:21:21.607Z,99.90
2022-08-18T18:23:53.002Z,99.90
2022-08-18T18:26:28.342Z,99.90
2022-08-18T18:29:29.105Z,99.90
2022-08-18T18:32:02.637Z,99.90
2022-08-18T18:34:39.607Z,99.90
2022-08-18T18:37:25.506Z,99.90
2022-08-18T18:39:58.290Z,99.90
2022-08-18T18:42:29.670Z,99.90
2022-08-18T18:45:00.633Z,99.90
2022-08-18T18:47:42.630Z,99.90
2022-08-18T18:50:18.476Z,99.90
2022-08-18T18:52:59.774Z,99.90
2022-08-18T18:55:31.602Z,99.90
2022-08-18T18:58:18.448Z,99.90
2022-08-18T19:00:53.937Z,99.90
2022-08-18T19:03:29.555Z,99.90
2022-08-18T19:06:17.530Z,99.90
2022-08-18T19:08:54.762Z,99.90
2022-08-18T19:11:31.829Z,99.90
2022-08-18T19:14:07.344Z,99.90
2022-08-18T19:16:42.051Z,99.90
2022-08-18T19:19:36.891Z,99.90
2022-08-18T19:22:14.959Z,99.90
2022-08-18T19:24:53.506Z,99.90
2022-08-18T19:27:27.952Z,99.90
2022-08-18T19:30:06.031Z,99.90
2022-08-18T19:32:43.858Z,99.90
2022-08-18T19:35:19.555Z,99.90
2022-08-18T19:38:07.897Z,99.90
2022-08-18T19:40:45.578Z,99.90
2022-08-18T19:43:23.715Z,99.90
2022-08-18T19:45:57.795Z,99.90
2022-08-18T19:48:32.582Z,99.90
2022-08-18T19:51:06.351Z,99.90
2022-08-18T19:53:55.226Z,99.90
2022-08-18T19:56:38.276Z,99.90
2022-08-18T19:59:24.445Z,99.90
2022-08-18T20:02:05.775Z,99.90
2022-08-18T20:04:51.950Z,99.90
2022-08-18T20:07:46.872Z,99.90
2022-08-18T20:10:38.378Z,99.90
2022-08-18T20:13:26.359Z,99.90
2022-08-18T20:16:13.790Z,99.90
2022-08-18T20:18:44.338Z,99.90
2022-08-18T20:21:46.469Z,99.90
2022-08-18T20:24:32.326Z,99.90
2022-08-18T20:27:34.169Z,99.90
2022-08-18T20:30:27.161Z,99.90
2022-08-18T20:33:36.408Z,99.90
2022-08-18T20:36:14.173Z,99.90
2022-08-18T20:38:45.643Z,99.90
2022-08-18T20:41:32.851Z,99.90
2022-08-18T20:44:29.883Z,99.90
2022-08-18T20:47:07.505Z,99.90
2022-08-18T20:49:46.401Z,99.90
2022-08-18T20:52:30.087Z,99.90
2022-08-18T20:55:11.372Z,99.90
2022-08-18T20:57:41.470Z,99.90
2022-08-18T21:00:15.765Z,99.90
2022-08-18T21:03:06.452Z,99.90
2022-08-18T21:05:39.320Z,99.90
2022-08-18T21:08:20.276Z,99.90
2022-08-18T21:10:51.910Z,99.90
2022-08-18T21:13:30.123Z,99.90
2022-08-18T21:16:00.305Z,99.90
2022-08-18T21:18:29.409Z,99.90
2022-08-18T21:21:00.297Z,99.90
2022-08-18T21:23:32.486Z,99.90
2022-08-18T21:26:06.740Z,99.90
2022-08-18T21:28:38.822Z,99.90
2022-08-18T21:31:42.176Z,99.90
2022-08-18T21:34:14.691Z,99.90
2022-08-18T21:36:52.158Z,99.90
2022-08-18T21:39:21.276Z,99.90
2022-08-18T21:41:51.893Z,99.90
2022-08-18T21:44:24.361Z,99.90
2022-08-18T21:47:05.755Z,99.90
2022-08-18T21:49:34.138Z,99.90
2022-08-18T21:52:02.814Z,99.90
2022-08-18T21:54:34.576Z,99.90
2022-08-18T21:57:24.500Z,99.90
2022-08-18T22:00:13.270Z,99.90
2022-08-18T22:02:43.082Z,99.90
2022-08-18T22:05:12.366Z,99.90
2022-08-18T22:07:47.908Z,99.90
2022-08-18T22:10:44.871Z,99.90
2022-08-18T22:13:39.770Z,99.90
2022-08-18T22:16:29.882Z,99.90
2022-08-18T22:19:26.051Z,99.90
2022-08-18T22:22:00.597Z,99.90
2022-08-18T22:24:36.249Z,99.90
2022-08-18T22:27:09.557Z,99.90
2022-08-18T22:29:45.892Z,99.90
2022-08-18T22:32:14.602Z,99.90
2022-08-18T22:34:44.438Z,99.90
2022-08-18T22:37:15.594Z,99.90
2022-08-18T22:39:50.584Z,99.90
2022-08-18T22:42:20.739Z,99.90
2022-08-18T22:44:49.573Z,99.90
2022-08-18T22:47:18.047Z,99.90
2022-08-18T22:49:48.108Z,99.90
2022-08-18T22:52:29.827Z,99.90
2022-08-18T22:54:59.152Z,99.90
2022-08-18T22:57:28.899Z,99.90
2022-08-18T22:59:58.116Z,99.90
2022-08-18T23:02:27.520Z,99.90
2022-08-18T23:04:57.029Z,99.90
2022-08-18T23:07:25.173Z,99.90
2022-08-18T23:09:53.308Z,99.90
2022-08-18T23:12:21.445Z,99.90
2022-08-18T23:14:49.618Z,99.90
2022-08-18T23:17:17.968Z,99.90
2022-08-18T23:19:47.182Z,99.90
2022-08-18T23:22:17.050Z,99.90
2022-08-18T23:24:45.162Z,99.90
2022-08-18T23:27:13.251Z,99.90
2022-08-18T23:29:41.529Z,99.90
2022-08-18T23:32:09.612Z,99.90
2022-08-18T23:34:37.856Z,99.90
2022-08-18T23:37:06.439Z,99.90
2022-08-18T23:39:38.962Z,99.90
2022-08-18T23:42:10.192Z,99.90
2022-08-18T23:44:38.328Z,99.90
2022-08-18T23:47:06.982Z,99.90
2022-08-18T23:49:36.544Z,99.90
2022-08-18T23:52:05.745Z,99.90
2022-08-18T23:54:36.502Z,99.90
2022-08-18T23:57:04.767Z,99.90
2022-08-18T23:59:32.919Z,99.90
